sensor_id;sensor_type;location;lat;lon;timestamp;P1;durP1;ratioP1;P2;durP2;ratioP2
52898;SDS011;38763;53.096;6.062;2022-12-04T00:01:07;47.00;;;17.23;;
52898;SDS011;38763;53.096;6.062;2022-12-04T00:03:37;45.63;;;15.50;;
52898;SDS011;38763;53.096;6.062;2022-12-04T00:06:05;45.83;;;17.13;;
52898;SDS011;38763;53.096;6.062;2022-12-04T00:08:36;46.50;;;17.52;;
52898;SDS011;38763;53.096;6.062;2022-12-04T00:11:03;46.47;;;15.82;;
52898;SDS011;38763;53.096;6.062;2022-12-04T00:13:31;43.95;;;17.90;;
52898;SDS011;38763;53.096;6.062;2022-12-04T00:15:57;45.38;;;16.92;;
52898;SDS011;38763;53.096;6.062;2022-12-04T00:18:23;42.15;;;14.63;;
52898;SDS011;38763;53.096;6.062;2022-12-04T00:20:49;43.28;;;16.38;;
52898;SDS011;38763;53.096;6.062;2022-12-04T00:23:14;42.25;;;16.52;;
52898;SDS011;38763;53.096;6.062;2022-12-04T00:25:40;39.78;;;15.18;;
52898;SDS011;38763;53.096;6.062;2022-12-04T00:28:06;42.00;;;16.15;;
52898;SDS011;38763;53.096;6.062;2022-12-04T00:30:32;42.53;;;16.08;;
52898;SDS011;38763;53.096;6.062;2022-12-04T00:32:58;43.75;;;15.63;;
52898;SDS011;38763;53.096;6.062;2022-12-04T00:35:24;41.42;;;15.88;;
52898;SDS011;38763;53.096;6.062;2022-12-04T00:37:50;37.45;;;15.52;;
52898;SDS011;38763;53.096;6.062;2022-12-04T00:40:15;39.10;;;15.15;;
52898;SDS011;38763;53.096;6.062;2022-12-04T00:42:41;38.55;;;15.13;;
52898;SDS011;38763;53.096;6.062;2022-12-04T00:45:06;40.92;;;16.10;;
52898;SDS011;38763;53.096;6.062;2022-12-04T00:47:32;38.72;;;15.57;;
52898;SDS011;38763;53.096;6.062;2022-12-04T00:49:58;37.13;;;15.00;;
52898;SDS011;38763;53.096;6.062;2022-12-04T00:52:23;35.40;;;14.35;;
52898;SDS011;38763;53.096;6.062;2022-12-04T00:54:49;31.52;;;13.30;;
52898;SDS011;38763;53.096;6.062;2022-12-04T00:57:15;35.55;;;13.75;;
52898;SDS011;38763;53.096;6.062;2022-12-04T00:59:40;35.85;;;14.18;;
52898;SDS011;38763;53.096;6.062;2022-12-04T01:02:06;34.25;;;12.52;;
52898;SDS011;38763;53.096;6.062;2022-12-04T01:04:31;35.95;;;14.82;;
52898;SDS011;38763;53.096;6.062;2022-12-04T01:06:57;34.42;;;14.48;;
52898;SDS011;38763;53.096;6.062;2022-12-04T01:09:23;37.33;;;14.55;;
52898;SDS011;38763;53.096;6.062;2022-12-04T01:11:48;36.47;;;14.65;;
52898;SDS011;38763;53.096;6.062;2022-12-04T01:14:14;35.70;;;14.38;;
52898;SDS011;38763;53.096;6.062;2022-12-04T01:16:39;36.35;;;13.85;;
52898;SDS011;38763;53.096;6.062;2022-12-04T01:19:06;31.38;;;14.18;;
52898;SDS011;38763;53.096;6.062;2022-12-04T01:21:33;35.28;;;12.57;;
52898;SDS011;38763;53.096;6.062;2022-12-04T01:24:00;26.30;;;11.88;;
52898;SDS011;38763;53.096;6.062;2022-12-04T01:26:26;35.08;;;14.18;;
52898;SDS011;38763;53.096;6.062;2022-12-04T01:28:52;34.38;;;14.57;;
52898;SDS011;38763;53.096;6.062;2022-12-04T01:31:19;34.58;;;13.75;;
52898;SDS011;38763;53.096;6.062;2022-12-04T01:33:46;35.90;;;14.85;;
52898;SDS011;38763;53.096;6.062;2022-12-04T01:36:18;37.25;;;14.45;;
52898;SDS011;38763;53.096;6.062;2022-12-04T01:38:45;34.30;;;13.80;;
52898;SDS011;38763;53.096;6.062;2022-12-04T01:41:11;40.38;;;15.07;;
52898;SDS011;38763;53.096;6.062;2022-12-04T01:43:38;37.40;;;14.50;;
52898;SDS011;38763;53.096;6.062;2022-12-04T01:46:04;37.83;;;15.00;;
52898;SDS011;38763;53.096;6.062;2022-12-04T01:48:39;32.05;;;13.93;;
52898;SDS011;38763;53.096;6.062;2022-12-04T01:53:43;38.15;;;13.13;;
52898;SDS011;38763;53.096;6.062;2022-12-04T01:56:14;31.60;;;12.80;;
52898;SDS011;38763;53.096;6.062;2022-12-04T01:58:43;35.95;;;13.52;;
52898;SDS011;38763;53.096;6.062;2022-12-04T02:01:12;38.17;;;14.88;;
52898;SDS011;38763;53.096;6.062;2022-12-04T02:03:38;35.30;;;14.20;;
52898;SDS011;38763;53.096;6.062;2022-12-04T02:06:04;35.28;;;15.18;;
52898;SDS011;38763;53.096;6.062;2022-12-04T02:08:30;37.13;;;15.45;;
52898;SDS011;38763;53.096;6.062;2022-12-04T02:11:23;37.75;;;14.85;;
52898;SDS011;38763;53.096;6.062;2022-12-04T02:14:13;33.35;;;13.73;;
52898;SDS011;38763;53.096;6.062;2022-12-04T02:16:56;37.45;;;15.55;;
52898;SDS011;38763;53.096;6.062;2022-12-04T02:19:45;38.35;;;16.10;;
52898;SDS011;38763;53.096;6.062;2022-12-04T02:25:17;31.60;;;13.65;;
52898;SDS011;38763;53.096;6.062;2022-12-04T02:27:51;36.50;;;14.15;;
52898;SDS011;38763;53.096;6.062;2022-12-04T02:30:28;35.58;;;13.60;;
52898;SDS011;38763;53.096;6.062;2022-12-04T02:33:03;37.53;;;14.38;;
52898;SDS011;38763;53.096;6.062;2022-12-04T02:35:54;36.15;;;15.00;;
52898;SDS011;38763;53.096;6.062;2022-12-04T02:38:31;39.90;;;15.95;;
52898;SDS011;38763;53.096;6.062;2022-12-04T02:43:39;37.75;;;15.82;;
52898;SDS011;38763;53.096;6.062;2022-12-04T02:46:18;40.35;;;16.65;;
52898;SDS011;38763;53.096;6.062;2022-12-04T02:48:49;43.63;;;16.45;;
52898;SDS011;38763;53.096;6.062;2022-12-04T02:51:18;38.95;;;15.60;;
52898;SDS011;38763;53.096;6.062;2022-12-04T02:53:49;35.97;;;14.45;;
52898;SDS011;38763;53.096;6.062;2022-12-04T02:56:22;41.83;;;17.27;;
52898;SDS011;38763;53.096;6.062;2022-12-04T02:58:53;41.67;;;15.63;;
52898;SDS011;38763;53.096;6.062;2022-12-04T03:01:25;41.22;;;16.92;;
52898;SDS011;38763;53.096;6.062;2022-12-04T03:06:21;39.53;;;16.88;;
52898;SDS011;38763;53.096;6.062;2022-12-04T03:08:53;41.28;;;14.45;;
52898;SDS011;38763;53.096;6.062;2022-12-04T03:11:23;45.72;;;17.60;;
52898;SDS011;38763;53.096;6.062;2022-12-04T03:13:54;46.28;;;18.60;;
52898;SDS011;38763;53.096;6.062;2022-12-04T03:16:27;46.55;;;18.00;;
52898;SDS011;38763;53.096;6.062;2022-12-04T03:19:05;42.25;;;15.68;;
52898;SDS011;38763;53.096;6.062;2022-12-04T03:21:39;45.38;;;17.88;;
52898;SDS011;38763;53.096;6.062;2022-12-04T03:24:18;47.05;;;19.52;;
52898;SDS011;38763;53.096;6.062;2022-12-04T03:26:58;43.50;;;16.40;;
52898;SDS011;38763;53.096;6.062;2022-12-04T03:29:37;48.67;;;18.48;;
52898;SDS011;38763;53.096;6.062;2022-12-04T03:32:13;49.10;;;18.85;;
52898;SDS011;38763;53.096;6.062;2022-12-04T03:37:56;41.92;;;17.67;;
52898;SDS011;38763;53.096;6.062;2022-12-04T03:40:28;50.05;;;19.80;;
52898;SDS011;38763;53.096;6.062;2022-12-04T03:43:03;49.67;;;18.90;;
52898;SDS011;38763;53.096;6.062;2022-12-04T03:45:40;52.03;;;19.98;;
52898;SDS011;38763;53.096;6.062;2022-12-04T03:48:29;53.00;;;20.65;;
52898;SDS011;38763;53.096;6.062;2022-12-04T03:53:35;47.55;;;20.23;;
52898;SDS011;38763;53.096;6.062;2022-12-04T03:56:08;49.57;;;20.77;;
52898;SDS011;38763;53.096;6.062;2022-12-04T03:58:48;48.08;;;18.40;;
52898;SDS011;38763;53.096;6.062;2022-12-04T04:01:17;54.47;;;20.63;;
52898;SDS011;38763;53.096;6.062;2022-12-04T04:03:50;53.55;;;21.42;;
52898;SDS011;38763;53.096;6.062;2022-12-04T04:06:32;52.08;;;19.17;;
52898;SDS011;38763;53.096;6.062;2022-12-04T04:09:03;54.17;;;22.27;;
52898;SDS011;38763;53.096;6.062;2022-12-04T04:11:34;53.00;;;19.13;;
52898;SDS011;38763;53.096;6.062;2022-12-04T04:14:17;52.33;;;20.33;;
52898;SDS011;38763;53.096;6.062;2022-12-04T04:17:07;53.25;;;19.90;;
52898;SDS011;38763;53.096;6.062;2022-12-04T04:20:29;53.97;;;21.70;;
52898;SDS011;38763;53.096;6.062;2022-12-04T04:23:27;56.70;;;22.80;;
52898;SDS011;38763;53.096;6.062;2022-12-04T04:26:15;44.33;;;17.65;;
52898;SDS011;38763;53.096;6.062;2022-12-04T04:28:41;55.65;;;22.25;;
52898;SDS011;38763;53.096;6.062;2022-12-04T04:33:42;57.15;;;22.48;;
52898;SDS011;38763;53.096;6.062;2022-12-04T04:39:16;53.45;;;20.13;;
52898;SDS011;38763;53.096;6.062;2022-12-04T04:41:51;53.90;;;22.10;;
52898;SDS011;38763;53.096;6.062;2022-12-04T04:47:17;54.45;;;22.05;;
52898;SDS011;38763;53.096;6.062;2022-12-04T04:49:49;55.60;;;21.73;;
52898;SDS011;38763;53.096;6.062;2022-12-04T04:52:17;54.42;;;19.23;;
52898;SDS011;38763;53.096;6.062;2022-12-04T04:54:46;55.78;;;22.33;;
52898;SDS011;38763;53.096;6.062;2022-12-04T04:57:12;55.13;;;21.60;;
52898;SDS011;38763;53.096;6.062;2022-12-04T04:59:37;57.72;;;22.02;;
52898;SDS011;38763;53.096;6.062;2022-12-04T05:02:03;56.97;;;21.55;;
52898;SDS011;38763;53.096;6.062;2022-12-04T05:04:29;56.05;;;22.55;;
52898;SDS011;38763;53.096;6.062;2022-12-04T05:06:54;58.03;;;21.70;;
52898;SDS011;38763;53.096;6.062;2022-12-04T05:09:20;54.95;;;21.55;;
52898;SDS011;38763;53.096;6.062;2022-12-04T05:11:45;46.90;;;17.83;;
52898;SDS011;38763;53.096;6.062;2022-12-04T05:14:11;52.17;;;21.63;;
52898;SDS011;38763;53.096;6.062;2022-12-04T05:16:37;56.58;;;22.45;;
52898;SDS011;38763;53.096;6.062;2022-12-04T05:19:04;60.55;;;21.80;;
52898;SDS011;38763;53.096;6.062;2022-12-04T05:21:48;54.42;;;21.05;;
52898;SDS011;38763;53.096;6.062;2022-12-04T05:24:14;57.75;;;23.00;;
52898;SDS011;38763;53.096;6.062;2022-12-04T05:26:40;57.08;;;22.70;;
52898;SDS011;38763;53.096;6.062;2022-12-04T05:29:05;51.45;;;19.25;;
52898;SDS011;38763;53.096;6.062;2022-12-04T05:31:31;59.85;;;22.35;;
52898;SDS011;38763;53.096;6.062;2022-12-04T05:33:56;52.88;;;20.60;;
52898;SDS011;38763;53.096;6.062;2022-12-04T05:36:22;52.22;;;20.05;;
52898;SDS011;38763;53.096;6.062;2022-12-04T05:38:48;52.65;;;20.13;;
52898;SDS011;38763;53.096;6.062;2022-12-04T05:41:14;55.10;;;22.38;;
52898;SDS011;38763;53.096;6.062;2022-12-04T05:43:39;58.58;;;22.13;;
52898;SDS011;38763;53.096;6.062;2022-12-04T05:46:06;51.78;;;21.30;;
52898;SDS011;38763;53.096;6.062;2022-12-04T05:48:32;57.30;;;22.77;;
52898;SDS011;38763;53.096;6.062;2022-12-04T05:50:59;52.60;;;19.80;;
52898;SDS011;38763;53.096;6.062;2022-12-04T05:53:28;56.15;;;22.48;;
52898;SDS011;38763;53.096;6.062;2022-12-04T05:55:58;49.25;;;18.70;;
52898;SDS011;38763;53.096;6.062;2022-12-04T05:58:25;53.75;;;20.73;;
52898;SDS011;38763;53.096;6.062;2022-12-04T06:00:51;56.28;;;21.38;;
52898;SDS011;38763;53.096;6.062;2022-12-04T06:03:17;58.40;;;22.13;;
52898;SDS011;38763;53.096;6.062;2022-12-04T06:05:43;56.63;;;21.10;;
52898;SDS011;38763;53.096;6.062;2022-12-04T06:08:08;56.25;;;22.85;;
52898;SDS011;38763;53.096;6.062;2022-12-04T06:10:34;58.45;;;23.67;;
52898;SDS011;38763;53.096;6.062;2022-12-04T06:13:00;55.83;;;23.90;;
52898;SDS011;38763;53.096;6.062;2022-12-04T06:15:25;54.22;;;20.73;;
52898;SDS011;38763;53.096;6.062;2022-12-04T06:17:51;55.45;;;21.65;;
52898;SDS011;38763;53.096;6.062;2022-12-04T06:20:17;56.35;;;21.05;;
52898;SDS011;38763;53.096;6.062;2022-12-04T06:22:42;61.17;;;23.95;;
52898;SDS011;38763;53.096;6.062;2022-12-04T06:25:08;58.13;;;23.83;;
52898;SDS011;38763;53.096;6.062;2022-12-04T06:27:34;57.80;;;22.38;;
52898;SDS011;38763;53.096;6.062;2022-12-04T06:30:00;57.30;;;22.52;;
52898;SDS011;38763;53.096;6.062;2022-12-04T06:32:26;56.50;;;21.75;;
52898;SDS011;38763;53.096;6.062;2022-12-04T06:34:52;56.67;;;22.33;;
52898;SDS011;38763;53.096;6.062;2022-12-04T06:37:19;54.22;;;21.42;;
52898;SDS011;38763;53.096;6.062;2022-12-04T06:39:46;58.97;;;22.25;;
52898;SDS011;38763;53.096;6.062;2022-12-04T06:42:11;57.97;;;22.85;;
52898;SDS011;38763;53.096;6.062;2022-12-04T06:44:37;56.45;;;22.02;;
52898;SDS011;38763;53.096;6.062;2022-12-04T06:47:02;51.88;;;19.58;;
52898;SDS011;38763;53.096;6.062;2022-12-04T06:49:29;60.50;;;22.75;;
52898;SDS011;38763;53.096;6.062;2022-12-04T06:51:54;58.88;;;22.60;;
52898;SDS011;38763;53.096;6.062;2022-12-04T06:54:21;59.47;;;23.23;;
52898;SDS011;38763;53.096;6.062;2022-12-04T06:56:47;60.33;;;24.02;;
52898;SDS011;38763;53.096;6.062;2022-12-04T06:59:13;54.83;;;20.80;;
52898;SDS011;38763;53.096;6.062;2022-12-04T07:01:39;58.53;;;23.40;;
52898;SDS011;38763;53.096;6.062;2022-12-04T07:04:05;55.88;;;22.30;;
52898;SDS011;38763;53.096;6.062;2022-12-04T07:06:31;59.28;;;22.55;;
52898;SDS011;38763;53.096;6.062;2022-12-04T07:08:59;51.45;;;20.75;;
52898;SDS011;38763;53.096;6.062;2022-12-04T07:11:27;56.83;;;21.67;;
52898;SDS011;38763;53.096;6.062;2022-12-04T07:13:55;58.58;;;23.45;;
52898;SDS011;38763;53.096;6.062;2022-12-04T07:16:21;55.67;;;21.02;;
52898;SDS011;38763;53.096;6.062;2022-12-04T07:18:48;58.47;;;22.92;;
52898;SDS011;38763;53.096;6.062;2022-12-04T07:21:18;57.22;;;21.73;;
52898;SDS011;38763;53.096;6.062;2022-12-04T07:23:47;57.25;;;22.48;;
52898;SDS011;38763;53.096;6.062;2022-12-04T07:26:15;55.90;;;21.75;;
52898;SDS011;38763;53.096;6.062;2022-12-04T07:28:41;61.28;;;23.33;;
52898;SDS011;38763;53.096;6.062;2022-12-04T07:31:09;57.08;;;22.35;;
52898;SDS011;38763;53.096;6.062;2022-12-04T07:33:36;58.22;;;21.13;;
52898;SDS011;38763;53.096;6.062;2022-12-04T07:36:03;61.35;;;22.50;;
52898;SDS011;38763;53.096;6.062;2022-12-04T07:38:32;52.35;;;21.33;;
52898;SDS011;38763;53.096;6.062;2022-12-04T07:41:02;59.33;;;22.55;;
52898;SDS011;38763;53.096;6.062;2022-12-04T07:43:29;55.78;;;20.92;;
52898;SDS011;38763;53.096;6.062;2022-12-04T07:45:55;60.45;;;23.10;;
52898;SDS011;38763;53.096;6.062;2022-12-04T07:48:21;58.83;;;22.13;;
52898;SDS011;38763;53.096;6.062;2022-12-04T07:50:47;54.63;;;20.20;;
52898;SDS011;38763;53.096;6.062;2022-12-04T07:53:12;60.95;;;21.65;;
52898;SDS011;38763;53.096;6.062;2022-12-04T07:55:38;59.67;;;22.17;;
52898;SDS011;38763;53.096;6.062;2022-12-04T07:58:04;62.45;;;22.15;;
52898;SDS011;38763;53.096;6.062;2022-12-04T08:00:29;52.78;;;21.95;;
52898;SDS011;38763;53.096;6.062;2022-12-04T08:02:56;58.13;;;22.33;;
52898;SDS011;38763;53.096;6.062;2022-12-04T08:05:22;58.13;;;23.30;;
52898;SDS011;38763;53.096;6.062;2022-12-04T08:07:48;61.03;;;22.60;;
52898;SDS011;38763;53.096;6.062;2022-12-04T08:10:13;56.47;;;21.95;;
52898;SDS011;38763;53.096;6.062;2022-12-04T08:12:39;59.33;;;21.67;;
52898;SDS011;38763;53.096;6.062;2022-12-04T08:15:05;58.97;;;21.60;;
52898;SDS011;38763;53.096;6.062;2022-12-04T08:17:31;57.38;;;22.30;;
52898;SDS011;38763;53.096;6.062;2022-12-04T08:19:57;60.95;;;22.83;;
52898;SDS011;38763;53.096;6.062;2022-12-04T08:22:23;53.53;;;20.48;;
52898;SDS011;38763;53.096;6.062;2022-12-04T08:24:48;57.35;;;22.05;;
52898;SDS011;38763;53.096;6.062;2022-12-04T08:27:14;60.97;;;22.27;;
52898;SDS011;38763;53.096;6.062;2022-12-04T08:29:40;63.97;;;23.98;;
52898;SDS011;38763;53.096;6.062;2022-12-04T08:32:05;52.38;;;20.23;;
52898;SDS011;38763;53.096;6.062;2022-12-04T08:34:31;62.47;;;23.15;;
52898;SDS011;38763;53.096;6.062;2022-12-04T08:36:57;60.22;;;20.95;;
52898;SDS011;38763;53.096;6.062;2022-12-04T08:39:22;57.47;;;22.00;;
52898;SDS011;38763;53.096;6.062;2022-12-04T08:41:48;59.03;;;23.00;;
52898;SDS011;38763;53.096;6.062;2022-12-04T08:44:13;58.53;;;22.95;;
52898;SDS011;38763;53.096;6.062;2022-12-04T08:46:39;62.60;;;23.60;;
52898;SDS011;38763;53.096;6.062;2022-12-04T08:49:05;55.88;;;22.00;;
52898;SDS011;38763;53.096;6.062;2022-12-04T08:51:31;63.17;;;26.65;;
52898;SDS011;38763;53.096;6.062;2022-12-04T08:54:02;60.08;;;24.17;;
52898;SDS011;38763;53.096;6.062;2022-12-04T08:56:30;62.53;;;23.67;;
52898;SDS011;38763;53.096;6.062;2022-12-04T08:58:57;59.08;;;23.55;;
52898;SDS011;38763;53.096;6.062;2022-12-04T09:01:23;62.10;;;23.92;;
52898;SDS011;38763;53.096;6.062;2022-12-04T09:03:50;63.47;;;23.70;;
52898;SDS011;38763;53.096;6.062;2022-12-04T09:06:16;57.38;;;23.15;;
52898;SDS011;38763;53.096;6.062;2022-12-04T09:08:42;61.83;;;22.70;;
52898;SDS011;38763;53.096;6.062;2022-12-04T09:11:12;61.38;;;24.05;;
52898;SDS011;38763;53.096;6.062;2022-12-04T09:13:39;66.07;;;24.73;;
52898;SDS011;38763;53.096;6.062;2022-12-04T09:16:07;62.13;;;26.20;;
52898;SDS011;38763;53.096;6.062;2022-12-04T09:18:35;63.45;;;24.42;;
52898;SDS011;38763;53.096;6.062;2022-12-04T09:21:02;58.25;;;22.73;;
52898;SDS011;38763;53.096;6.062;2022-12-04T09:23:30;60.97;;;23.70;;
52898;SDS011;38763;53.096;6.062;2022-12-04T09:25:57;61.25;;;23.15;;
52898;SDS011;38763;53.096;6.062;2022-12-04T09:28:22;63.08;;;23.40;;
52898;SDS011;38763;53.096;6.062;2022-12-04T09:30:57;61.83;;;24.60;;
52898;SDS011;38763;53.096;6.062;2022-12-04T09:33:30;57.05;;;23.27;;
52898;SDS011;38763;53.096;6.062;2022-12-04T09:36:00;55.88;;;22.52;;
52898;SDS011;38763;53.096;6.062;2022-12-04T09:38:27;53.05;;;21.05;;
52898;SDS011;38763;53.096;6.062;2022-12-04T09:46:35;53.25;;;22.38;;
52898;SDS011;38763;53.096;6.062;2022-12-04T09:49:06;54.42;;;21.30;;
52898;SDS011;38763;53.096;6.062;2022-12-04T09:51:36;54.28;;;21.17;;
52898;SDS011;38763;53.096;6.062;2022-12-04T09:54:06;49.95;;;20.92;;
52898;SDS011;38763;53.096;6.062;2022-12-04T09:56:38;55.10;;;22.33;;
52898;SDS011;38763;53.096;6.062;2022-12-04T09:59:06;51.83;;;21.23;;
52898;SDS011;38763;53.096;6.062;2022-12-04T10:01:44;51.55;;;21.27;;
52898;SDS011;38763;53.096;6.062;2022-12-04T10:04:18;48.80;;;20.05;;
52898;SDS011;38763;53.096;6.062;2022-12-04T10:09:34;51.15;;;20.65;;
52898;SDS011;38763;53.096;6.062;2022-12-04T10:12:24;50.80;;;19.90;;
52898;SDS011;38763;53.096;6.062;2022-12-04T10:15:18;50.85;;;20.52;;
52898;SDS011;38763;53.096;6.062;2022-12-04T10:20:53;44.20;;;18.73;;
52898;SDS011;38763;53.096;6.062;2022-12-04T10:23:40;48.08;;;19.73;;
52898;SDS011;38763;53.096;6.062;2022-12-04T10:26:17;41.35;;;18.05;;
52898;SDS011;38763;53.096;6.062;2022-12-04T10:28:55;50.05;;;20.65;;
52898;SDS011;38763;53.096;6.062;2022-12-04T10:31:28;47.50;;;19.67;;
52898;SDS011;38763;53.096;6.062;2022-12-04T10:33:57;46.15;;;19.63;;
52898;SDS011;38763;53.096;6.062;2022-12-04T10:36:30;41.45;;;16.25;;
52898;SDS011;38763;53.096;6.062;2022-12-04T10:39:15;43.05;;;18.58;;
52898;SDS011;38763;53.096;6.062;2022-12-04T10:44:44;47.15;;;19.88;;
52898;SDS011;38763;53.096;6.062;2022-12-04T10:47:09;46.22;;;18.90;;
52898;SDS011;38763;53.096;6.062;2022-12-04T10:49:37;46.55;;;19.55;;
52898;SDS011;38763;53.096;6.062;2022-12-04T10:52:04;46.45;;;19.02;;
52898;SDS011;38763;53.096;6.062;2022-12-04T10:54:38;46.50;;;18.60;;
52898;SDS011;38763;53.096;6.062;2022-12-04T10:57:12;42.47;;;17.92;;
52898;SDS011;38763;53.096;6.062;2022-12-04T10:59:46;41.78;;;16.67;;
52898;SDS011;38763;53.096;6.062;2022-12-04T11:02:19;38.58;;;17.23;;
52898;SDS011;38763;53.096;6.062;2022-12-04T11:04:55;39.60;;;16.30;;
52898;SDS011;38763;53.096;6.062;2022-12-04T11:07:32;36.53;;;16.73;;
52898;SDS011;38763;53.096;6.062;2022-12-04T11:10:05;38.30;;;15.93;;
52898;SDS011;38763;53.096;6.062;2022-12-04T11:12:58;36.50;;;15.43;;
52898;SDS011;38763;53.096;6.062;2022-12-04T11:15:26;36.08;;;15.57;;
52898;SDS011;38763;53.096;6.062;2022-12-04T11:17:52;34.13;;;15.38;;
52898;SDS011;38763;53.096;6.062;2022-12-04T11:20:19;34.78;;;14.32;;
52898;SDS011;38763;53.096;6.062;2022-12-04T11:22:48;34.17;;;15.13;;
52898;SDS011;38763;53.096;6.062;2022-12-04T11:25:14;32.90;;;13.88;;
52898;SDS011;38763;53.096;6.062;2022-12-04T11:27:44;32.78;;;14.38;;
52898;SDS011;38763;53.096;6.062;2022-12-04T11:30:13;33.38;;;14.65;;
52898;SDS011;38763;53.096;6.062;2022-12-04T11:32:43;34.97;;;14.88;;
52898;SDS011;38763;53.096;6.062;2022-12-04T11:35:19;31.13;;;12.95;;
52898;SDS011;38763;53.096;6.062;2022-12-04T11:37:57;28.85;;;12.55;;
52898;SDS011;38763;53.096;6.062;2022-12-04T11:40:27;30.60;;;13.23;;
52898;SDS011;38763;53.096;6.062;2022-12-04T11:42:58;27.15;;;12.48;;
52898;SDS011;38763;53.096;6.062;2022-12-04T11:45:29;27.75;;;12.98;;
52898;SDS011;38763;53.096;6.062;2022-12-04T11:47:57;27.73;;;11.93;;
52898;SDS011;38763;53.096;6.062;2022-12-04T11:55:40;26.60;;;12.38;;
52898;SDS011;38763;53.096;6.062;2022-12-04T12:06:38;23.75;;;10.48;;
52898;SDS011;38763;53.096;6.062;2022-12-04T12:19:54;19.58;;;9.13;;
52898;SDS011;38763;53.096;6.062;2022-12-04T12:28:10;23.42;;;10.98;;
52898;SDS011;38763;53.096;6.062;2022-12-04T12:33:54;22.25;;;10.60;;
52898;SDS011;38763;53.096;6.062;2022-12-04T12:36:41;23.97;;;11.23;;
52898;SDS011;38763;53.096;6.062;2022-12-04T12:39:22;23.08;;;11.05;;
52898;SDS011;38763;53.096;6.062;2022-12-04T12:41:53;24.60;;;10.63;;
52898;SDS011;38763;53.096;6.062;2022-12-04T12:44:24;25.02;;;11.57;;
52898;SDS011;38763;53.096;6.062;2022-12-04T12:47:06;25.48;;;11.38;;
52898;SDS011;38763;53.096;6.062;2022-12-04T12:49:46;24.98;;;11.10;;
52898;SDS011;38763;53.096;6.062;2022-12-04T12:54:45;22.08;;;10.20;;
52898;SDS011;38763;53.096;6.062;2022-12-04T12:57:23;22.85;;;10.48;;
52898;SDS011;38763;53.096;6.062;2022-12-04T12:59:59;22.13;;;10.52;;
52898;SDS011;38763;53.096;6.062;2022-12-04T13:05:35;24.48;;;10.82;;
52898;SDS011;38763;53.096;6.062;2022-12-04T13:11:10;22.00;;;10.80;;
52898;SDS011;38763;53.096;6.062;2022-12-04T13:13:43;17.30;;;8.00;;
52898;SDS011;38763;53.096;6.062;2022-12-04T13:16:57;23.30;;;10.55;;
52898;SDS011;38763;53.096;6.062;2022-12-04T13:21:45;23.15;;;10.73;;
52898;SDS011;38763;53.096;6.062;2022-12-04T13:27:33;23.02;;;11.80;;
52898;SDS011;38763;53.096;6.062;2022-12-04T13:30:03;21.95;;;9.65;;
52898;SDS011;38763;53.096;6.062;2022-12-04T13:35:25;24.20;;;11.60;;
52898;SDS011;38763;53.096;6.062;2022-12-04T13:40:51;24.80;;;11.25;;
52898;SDS011;38763;53.096;6.062;2022-12-04T13:45:58;23.65;;;10.68;;
52898;SDS011;38763;53.096;6.062;2022-12-04T13:48:44;24.23;;;10.75;;
52898;SDS011;38763;53.096;6.062;2022-12-04T13:53:39;25.50;;;11.68;;
52898;SDS011;38763;53.096;6.062;2022-12-04T13:56:07;27.63;;;12.57;;
52898;SDS011;38763;53.096;6.062;2022-12-04T13:59:02;25.75;;;11.70;;
52898;SDS011;38763;53.096;6.062;2022-12-04T14:01:44;25.55;;;11.95;;
52898;SDS011;38763;53.096;6.062;2022-12-04T14:05:16;27.65;;;11.80;;
52898;SDS011;38763;53.096;6.062;2022-12-04T14:07:26;27.35;;;12.00;;
52898;SDS011;38763;53.096;6.062;2022-12-04T14:10:02;27.73;;;13.20;;
52898;SDS011;38763;53.096;6.062;2022-12-04T14:12:31;30.63;;;13.15;;
52898;SDS011;38763;53.096;6.062;2022-12-04T14:15:04;27.73;;;13.65;;
52898;SDS011;38763;53.096;6.062;2022-12-04T14:17:33;30.33;;;14.07;;
52898;SDS011;38763;53.096;6.062;2022-12-04T14:20:02;31.40;;;13.27;;
52898;SDS011;38763;53.096;6.062;2022-12-04T14:22:39;29.52;;;13.25;;
52898;SDS011;38763;53.096;6.062;2022-12-04T14:27:42;28.73;;;13.07;;
52898;SDS011;38763;53.096;6.062;2022-12-04T14:30:17;27.83;;;12.48;;
52898;SDS011;38763;53.096;6.062;2022-12-04T14:32:48;24.05;;;11.88;;
52898;SDS011;38763;53.096;6.062;2022-12-04T14:35:23;28.90;;;12.63;;
52898;SDS011;38763;53.096;6.062;2022-12-04T14:37:59;28.58;;;12.75;;
52898;SDS011;38763;53.096;6.062;2022-12-04T14:40:28;32.80;;;13.35;;
52898;SDS011;38763;53.096;6.062;2022-12-04T14:43:03;32.78;;;13.35;;
52898;SDS011;38763;53.096;6.062;2022-12-04T14:45:36;33.60;;;14.48;;
52898;SDS011;38763;53.096;6.062;2022-12-04T14:53:34;35.90;;;14.73;;
52898;SDS011;38763;53.096;6.062;2022-12-04T14:56:19;32.95;;;14.38;;
52898;SDS011;38763;53.096;6.062;2022-12-04T14:58:50;36.30;;;15.27;;
52898;SDS011;38763;53.096;6.062;2022-12-04T15:01:20;33.75;;;14.90;;
52898;SDS011;38763;53.096;6.062;2022-12-04T15:03:54;36.83;;;15.30;;
52898;SDS011;38763;53.096;6.062;2022-12-04T15:06:25;38.05;;;16.15;;
52898;SDS011;38763;53.096;6.062;2022-12-04T15:08:56;41.25;;;17.58;;
52898;SDS011;38763;53.096;6.062;2022-12-04T15:11:49;33.65;;;15.35;;
52898;SDS011;38763;53.096;6.062;2022-12-04T15:14:45;38.75;;;17.58;;
52898;SDS011;38763;53.096;6.062;2022-12-04T15:17:13;37.45;;;16.05;;
52898;SDS011;38763;53.096;6.062;2022-12-04T15:19:40;40.53;;;15.20;;
52898;SDS011;38763;53.096;6.062;2022-12-04T15:22:12;35.28;;;16.05;;
52898;SDS011;38763;53.096;6.062;2022-12-04T15:24:49;42.23;;;18.13;;
52898;SDS011;38763;53.096;6.062;2022-12-04T15:27:15;39.92;;;16.98;;
52898;SDS011;38763;53.096;6.062;2022-12-04T15:29:45;41.72;;;16.95;;
52898;SDS011;38763;53.096;6.062;2022-12-04T15:32:13;40.38;;;14.65;;
52898;SDS011;38763;53.096;6.062;2022-12-04T15:34:41;41.47;;;18.40;;
52898;SDS011;38763;53.096;6.062;2022-12-04T15:37:16;40.33;;;18.07;;
52898;SDS011;38763;53.096;6.062;2022-12-04T15:39:46;44.45;;;18.90;;
52898;SDS011;38763;53.096;6.062;2022-12-04T15:42:17;42.30;;;18.85;;
52898;SDS011;38763;53.096;6.062;2022-12-04T15:44:52;36.30;;;15.23;;
52898;SDS011;38763;53.096;6.062;2022-12-04T15:47:26;35.30;;;16.52;;
52898;SDS011;38763;53.096;6.062;2022-12-04T15:55:30;31.80;;;15.65;;
52898;SDS011;38763;53.096;6.062;2022-12-04T15:58:14;33.33;;;14.52;;
52898;SDS011;38763;53.096;6.062;2022-12-04T16:00:46;27.08;;;11.95;;
52898;SDS011;38763;53.096;6.062;2022-12-04T16:03:24;35.00;;;14.93;;
52898;SDS011;38763;53.096;6.062;2022-12-04T16:06:01;33.72;;;14.35;;
52898;SDS011;38763;53.096;6.062;2022-12-04T16:08:29;32.22;;;15.15;;
52898;SDS011;38763;53.096;6.062;2022-12-04T16:11:01;32.42;;;14.18;;
52898;SDS011;38763;53.096;6.062;2022-12-04T16:13:29;31.05;;;14.43;;
52898;SDS011;38763;53.096;6.062;2022-12-04T16:16:02;31.90;;;13.45;;
52898;SDS011;38763;53.096;6.062;2022-12-04T16:18:30;26.58;;;11.13;;
52898;SDS011;38763;53.096;6.062;2022-12-04T16:20:56;33.22;;;14.00;;
52898;SDS011;38763;53.096;6.062;2022-12-04T16:23:23;31.40;;;13.45;;
52898;SDS011;38763;53.096;6.062;2022-12-04T16:25:50;29.77;;;12.98;;
52898;SDS011;38763;53.096;6.062;2022-12-04T16:28:15;30.95;;;13.57;;
52898;SDS011;38763;53.096;6.062;2022-12-04T16:30:41;32.80;;;14.65;;
52898;SDS011;38763;53.096;6.062;2022-12-04T16:33:08;34.05;;;14.55;;